Time;durP1;ratioP1;P1;durP2;ratioP2;P2;SDS_P1;SDS_P2;PMS_P1;PMS_P2;Temp;Humidity;BMP_temperature;BMP_pressure;BME280_temperature;BME280_humidity;BME280_pressure;Samples;Min_cycle;Max_cycle;Signal;HPM_P1;HPM_P2
2022/06/22 00:01:35;;;;;;;14.95;8.63;;;10.40;99.90;;;;;;4939597;29;20047;-72
2022/06/22 00:04:02;;;;;;;12.57;8.02;;;10.40;99.90;;;;;;4944229;28;20043;-73
2022/06/22 00:06:41;;;;;;;13.60;8.77;;;10.30;99.90;;;;;;4941378;29;20134;-72
2022/06/22 00:09:19;;;;;;;14.55;9.57;;;10.40;99.90;;;;;;4921168;29;20050;-72
2022/06/22 00:11:45;;;;;;;13.45;8.50;;;10.20;99.90;;;;;;4924940;29;20045;-73
2022/06/22 00:14:19;;;;;;;12.02;8.00;;;10.30;99.90;;;;;;4934037;29;20050;-73
2022/06/22 00:16:50;;;;;;;10.75;8.18;;;10.20;99.90;;;;;;4945071;29;20094;-73
2022/06/22 00:19:29;;;;;;;12.02;7.75;;;10.20;99.90;;;;;;4946001;29;20099;-72
2022/06/22 00:21:55;;;;;;;13.95;8.30;;;10.20;99.90;;;;;;4946127;28;20048;-73
2022/06/22 00:24:23;;;;;;;10.23;7.50;;;10.10;99.90;;;;;;4928764;29;20792;-73
2022/06/22 00:27:13;;;;;;;11.25;7.43;;;10.10;99.90;;;;;;4903401;29;20911;-73
2022/06/22 00:29:39;;;;;;;11.40;6.95;;;10.00;99.90;;;;;;4928232;29;20058;-73
2022/06/22 00:32:26;;;;;;;9.93;7.07;;;10.00;99.90;;;;;;4925165;29;20505;-73
2022/06/22 00:34:52;;;;;;;9.27;6.85;;;9.80;99.90;;;;;;4943575;29;20051;-72
2022/06/22 00:37:30;;;;;;;9.85;7.00;;;9.80;99.90;;;;;;4944075;28;20043;-72
2022/06/22 00:40:00;;;;;;;11.38;7.22;;;9.80;99.90;;;;;;4927692;29;20066;-73
2022/06/22 00:42:39;;;;;;;10.30;6.78;;;9.80;99.90;;;;;;4946674;29;20402;-72
2022/06/22 00:45:12;;;;;;;9.48;6.22;;;9.80;99.90;;;;;;4929540;29;20057;-73
2022/06/22 00:47:45;;;;;;;11.85;6.70;;;9.80;99.90;;;;;;4945925;29;20051;-73
2022/06/22 00:50:26;;;;;;;10.65;6.47;;;9.80;99.90;;;;;;4940505;29;20055;-73
2022/06/22 00:52:52;;;;;;;;;;;9.70;99.90;;;;;;4905721;28;20046;-73
2022/06/22 00:55:31;;;;;;;9.70;6.07;;;9.90;99.90;;;;;;4919793;29;19922;-73
2022/06/22 00:58:04;;;;;;;9.10;6.40;;;9.70;99.90;;;;;;4947203;29;20047;-73
2022/06/22 01:00:33;;;;;;;9.52;5.97;;;9.70;99.90;;;;;;4930724;29;20081;-73
2022/06/22 01:03:16;;;;;;;10.30;5.82;;;9.60;99.90;;;;;;4926051;29;20464;-73
2022/06/22 01:05:51;;;;;;;9.38;5.60;;;9.50;99.90;;;;;;4930438;29;20051;-73
2022/06/22 01:08:26;;;;;;;8.60;6.28;;;9.50;99.90;;;;;;4929566;29;20412;-73
2022/06/22 01:11:02;;;;;;;8.05;5.53;;;9.40;99.90;;;;;;4928163;29;20046;-72
2022/06/22 01:13:37;;;;;;;10.25;6.25;;;9.40;99.90;;;;;;4944667;29;20101;-73
2022/06/22 01:16:17;;;;;;;8.65;5.97;;;9.40;99.90;;;;;;4924415;29;20059;-73
2022/06/22 01:18:57;;;;;;;9.93;5.82;;;9.40;99.90;;;;;;4927327;29;20039;-73
2022/06/22 01:21:29;;;;;;;8.88;6.10;;;9.40;99.90;;;;;;4924784;29;20048;-73
2022/06/22 01:24:15;;;;;;;9.13;6.40;;;9.40;99.90;;;;;;4908010;29;20452;-73
2022/06/22 01:27:02;;;;;;;9.45;5.85;;;9.40;99.90;;;;;;4935967;29;20576;-73
2022/06/22 01:29:28;;;;;;;10.40;6.43;;;9.30;99.90;;;;;;4907285;29;20510;-73
2022/06/22 01:31:54;;;;;;;9.95;6.50;;;9.50;99.90;;;;;;4914615;29;20044;-73
2022/06/22 01:34:20;;;;;;;9.18;6.40;;;9.20;99.90;;;;;;4887542;29;20054;-72
2022/06/22 01:36:46;;;;;;;8.15;5.97;;;9.20;99.90;;;;;;4906512;29;20099;-73
2022/06/22 01:39:13;;;;;;;8.75;6.30;;;9.20;99.90;;;;;;4916276;29;20076;-73
2022/06/22 01:42:07;;;;;;;10.00;6.40;;;9.20;99.90;;;;;;4885942;29;20882;-73
2022/06/22 01:45:02;;;;;;;9.73;5.90;;;9.10;99.90;;;;;;4902944;29;20553;-73
2022/06/22 01:47:51;;;;;;;9.13;6.22;;;9.10;99.90;;;;;;4900658;29;20051;-73
2022/06/22 01:50:36;;;;;;;8.35;5.55;;;9.10;99.90;;;;;;4890880;29;20532;-73
2022/06/22 01:53:27;;;;;;;9.95;6.50;;;9.10;99.90;;;;;;4925338;29;20070;-73
2022/06/22 01:56:07;;;;;;;10.48;6.38;;;9.00;99.90;;;;;;4920126;29;20044;-73
2022/06/22 01:58:53;;;;;;;8.50;5.57;;;9.10;99.90;;;;;;4942573;29;20028;-73
2022/06/22 02:01:30;;;;;;;10.32;6.30;;;9.00;99.90;;;;;;4931612;29;20262;-73
2022/06/22 02:04:09;;;;;;;12.00;5.95;;;9.00;99.90;;;;;;4928067;29;20064;-73
2022/06/22 02:09:37;;;;;;;7.38;5.22;;;9.10;99.90;;;;;;4928037;29;20044;-73
2022/06/22 02:12:18;;;;;;;9.00;5.75;;;9.00;99.90;;;;;;4903264;29;20044;-73
2022/06/22 02:14:56;;;;;;;8.05;5.72;;;9.00;99.90;;;;;;4911840;29;20119;-73
2022/06/22 02:17:26;;;;;;;9.10;6.10;;;8.90;99.90;;;;;;4904941;29;20056;-73
2022/06/22 02:20:25;;;;;;;7.95;5.80;;;8.90;99.90;;;;;;4904589;29;20106;-73
2022/06/22 02:22:58;;;;;;;8.50;6.30;;;8.90;99.90;;;;;;4887774;29;20582;-73
2022/06/22 02:25:26;;;;;;;9.98;6.20;;;8.90;99.90;;;;;;4898732;29;20490;-73
2022/06/22 02:27:52;;;;;;;9.00;6.22;;;8.80;99.90;;;;;;4924807;29;20095;-73
2022/06/22 02:30:18;;;;;;;11.38;6.88;;;8.80;99.90;;;;;;4928512;29;20095;-73
2022/06/22 02:32:45;;;;;;;10.52;7.13;;;8.80;99.90;;;;;;4937763;29;20058;-74
2022/06/22 02:35:13;;;;;;;12.55;6.47;;;8.80;99.90;;;;;;4912094;29;20383;-73
2022/06/22 02:37:50;;;;;;;10.40;7.05;;;8.80;99.90;;;;;;4922158;29;20528;-73
2022/06/22 02:40:20;;;;;;;9.38;6.25;;;8.70;99.90;;;;;;4923646;29;20130;-73
2022/06/22 02:45:31;;;;;;;9.60;6.28;;;8.70;99.90;;;;;;4920493;29;20070;-73
2022/06/22 02:48:13;;;;;;;11.40;6.88;;;8.60;99.90;;;;;;4923139;29;20090;-73
2022/06/22 02:50:47;;;;;;;10.57;7.43;;;8.60;99.90;;;;;;4942508;29;20510;-73
2022/06/22 02:53:16;;;;;;;8.57;6.00;;;8.60;99.90;;;;;;4920763;29;20102;-73
2022/06/22 02:55:42;;;;;;;9.55;6.25;;;8.60;99.90;;;;;;4924300;29;20060;-73
2022/06/22 02:58:34;;;;;;;9.20;6.97;;;8.50;99.90;;;;;;4920739;29;20056;-73
2022/06/22 03:01:13;;;;;;;10.50;7.40;;;8.60;99.90;;;;;;4918463;29;20127;-73
2022/06/22 03:03:43;;;;;;;10.60;7.68;;;8.60;99.90;;;;;;4918753;29;20043;-73
2022/06/22 03:06:12;;;;;;;10.05;7.68;;;8.60;99.90;;;;;;4904164;29;20044;-73
2022/06/22 03:08:39;;;;;;;12.60;8.40;;;8.60;99.90;;;;;;4919239;29;20095;-73
2022/06/22 03:11:07;;;;;;;13.88;9.65;;;8.60;99.90;;;;;;4918316;29;20512;-73
2022/06/22 03:13:53;;;;;;;13.23;8.25;;;8.50;99.90;;;;;;4933641;28;20050;-73
2022/06/22 03:16:25;;;;;;;11.00;8.45;;;8.50;99.90;;;;;;4919229;29;20047;-73
2022/06/22 03:18:52;;;;;;;15.02;8.77;;;8.50;99.90;;;;;;4924602;29;20039;-73
2022/06/22 03:21:18;;;;;;;15.23;8.57;;;8.50;99.90;;;;;;4925535;29;20095;-73
2022/06/22 03:24:09;;;;;;;12.20;8.00;;;8.50;99.90;;;;;;4923450;29;20498;-73
2022/06/22 03:26:40;;;;;;;12.13;8.18;;;8.50;99.90;;;;;;4924332;29;20043;-73
2022/06/22 03:29:20;;;;;;;15.05;9.23;;;8.50;99.90;;;;;;4942807;29;20059;-73
2022/06/22 03:31:53;;;;;;;15.70;8.88;;;8.50;99.90;;;;;;4927322;29;20651;-73
2022/06/22 03:34:24;;;;;;;12.43;8.65;;;8.50;99.90;;;;;;4911643;29;20067;-73
2022/06/22 03:36:55;;;;;;;;;;;8.60;99.90;;;;;;4943290;28;20052;-73
2022/06/22 03:39:25;;;;;;;13.32;8.90;;;8.60;99.90;;;;;;4928374;29;19930;-73
2022/06/22 03:42:25;;;;;;;12.93;8.43;;;8.60;99.90;;;;;;4924261;29;20382;-73
2022/06/22 03:45:10;;;;;;;11.77;8.13;;;8.70;99.90;;;;;;4930310;28;20428;-73
2022/06/22 03:48:10;;;;;;;12.65;8.38;;;8.70;99.90;;;;;;4941039;29;20290;-73
2022/06/22 03:50:44;;;;;;;12.43;8.20;;;8.70;99.90;;;;;;4926525;29;20036;-73
2022/06/22 03:53:18;;;;;;;11.40;6.95;;;8.70;99.90;;;;;;4937704;28;20052;-74
2022/06/22 03:55:49;;;;;;;11.95;7.47;;;8.70;99.90;;;;;;4943432;28;20048;-73
2022/06/22 03:58:15;;;;;;;9.93;6.50;;;8.70;99.90;;;;;;4944124;28;20052;-73
2022/06/22 04:00:45;;;;;;;9.02;6.30;;;8.70;99.90;;;;;;4938467;28;20039;-74
2022/06/22 04:03:13;;;;;;;9.23;6.32;;;8.70;99.90;;;;;;4928078;29;20044;-74
2022/06/22 04:05:48;;;;;;;9.07;6.20;;;8.80;99.90;;;;;;4927676;29;20051;-73
2022/06/22 04:08:26;;;;;;;9.55;6.45;;;8.80;99.90;;;;;;4940723;28;20110;-73
2022/06/22 04:10:58;;;;;;;10.18;6.68;;;8.90;99.90;;;;;;4907868;29;20478;-73
2022/06/22 04:13:42;;;;;;;9.10;5.90;;;8.90;99.90;;;;;;4925113;29;20059;-74
2022/06/22 04:16:17;;;;;;;8.95;5.43;;;9.00;99.90;;;;;;4927111;29;20468;-74
2022/06/22 04:19:05;;;;;;;7.25;4.93;;;9.10;99.90;;;;;;4910094;29;20047;-73
2022/06/22 04:21:53;;;;;;;8.10;5.25;;;9.10;99.90;;;;;;4909597;29;20060;-73
2022/06/22 04:24:24;;;;;;;8.95;4.70;;;9.20;99.90;;;;;;4932443;29;20051;-74
2022/06/22 04:27:07;;;;;;;9.70;5.60;;;9.20;99.90;;;;;;4950842;29;20075;-73
2022/06/22 04:29:45;;;;;;;7.72;5.43;;;9.30;99.90;;;;;;4927056;29;20585;-74
2022/06/22 04:32:18;;;;;;;10.00;5.60;;;9.40;99.90;;;;;;4927441;29;20059;-73
2022/06/22 04:35:02;;;;;;;10.98;5.63;;;9.50;99.90;;;;;;4929873;29;20044;-73
2022/06/22 04:37:37;;;;;;;9.32;6.13;;;10.90;99.90;;;;;;4971526;28;20040;-74
2022/06/22 04:40:43;;;;;;;9.95;4.97;;;12.60;99.90;;;;;;4967493;28;20056;-74
2022/06/22 04:43:11;;;;;;;9.32;4.28;;;14.60;99.90;;;;;;4927004;29;20106;-74
2022/06/22 04:45:41;;;;;;;7.63;4.40;;;16.20;99.90;;;;;;4937532;29;20445;-74
2022/06/22 04:48:12;;;;;;;10.13;5.13;;;17.30;99.90;;;;;;4924945;29;20058;-74
2022/06/22 04:50:41;;;;;;;9.00;4.38;;;18.50;99.90;;;;;;4926428;29;21341;-74
2022/06/22 04:53:35;;;;;;;8.45;5.03;;;19.30;99.90;;;;;;4927049;29;20082;-74
2022/06/22 04:56:04;;;;;;;9.82;4.47;;;20.20;99.90;;;;;;4915480;29;20047;-74
2022/06/22 04:58:33;;;;;;;8.15;4.47;;;21.00;99.90;;;;;;4911697;29;20039;-74
2022/06/22 05:01:00;;;;;;;8.50;4.50;;;21.70;99.90;;;;;;4922526;29;20172;-74
2022/06/22 05:03:26;;;;;;;7.82;4.35;;;22.30;99.90;;;;;;4927548;29;20131;-74
2022/06/22 05:05:54;;;;;;;9.57;4.00;;;22.90;99.90;;;;;;4925989;29;20046;-74
2022/06/22 05:08:32;;;;;;;7.90;3.70;;;23.40;99.90;;;;;;4922726;29;20086;-74
2022/06/22 05:11:23;;;;;;;7.95;4.07;;;24.00;99.90;;;;;;4924986;29;20493;-74
2022/06/22 05:13:52;;;;;;;9.50;4.00;;;24.40;99.90;;;;;;4924882;29;20670;-74
2022/06/22 05:16:22;;;;;;;8.13;4.05;;;24.80;99.90;;;;;;4940274;29;20087;-74
2022/06/22 05:18:50;;;;;;;8.88;4.75;;;25.20;99.90;;;;;;4943021;28;20107;-74
2022/06/22 05:21:28;;;;;;;8.30;3.92;;;25.70;99.90;;;;;;4941995;29;20130;-75
2022/06/22 05:23:56;;;;;;;8.43;4.13;;;26.20;99.90;;;;;;4924035;29;20409;-75
2022/06/22 05:26:24;;;;;;;7.20;3.70;;;26.50;99.90;;;;;;4923610;29;20055;-75
2022/06/22 05:29:25;;;;;;;9.35;4.25;;;26.70;99.90;;;;;;4921916;29;20043;-74
2022/06/22 05:31:56;;;;;;;;;;;27.00;99.90;;;;;;4920975;29;20059;-75
2022/06/22 05:34:32;;;;;;;8.65;5.10;;;26.60;98.80;;;;;;4925932;29;19966;-74
2022/06/22 05:37:14;;;;;;;10.02;5.72;;;24.80;99.00;;;;;;4935963;28;20039;-74
2022/06/22 05:39:41;;;;;;;10.25;5.50;;;23.30;99.90;;;;;;4924651;29;20039;-75
2022/06/22 05:42:10;;;;;;;10.90;6.05;;;21.70;99.90;;;;;;4924052;29;20047;-74
2022/06/22 05:44:37;;;;;;;8.88;5.15;;;20.70;99.90;;;;;;4938379;29;20090;-74
2022/06/22 05:47:03;;;;;;;9.63;5.53;;;19.80;99.90;;;;;;4940396;28;20051;-74
2022/06/22 05:49:59;;;;;;;10.40;6.18;;;19.20;99.90;;;;;;4925116;29;20494;-74
2022/06/22 05:52:46;;;;;;;12.73;6.70;;;18.60;99.90;;;;;;4906214;29;20475;-73
2022/06/22 05:55:37;;;;;;;10.60;6.30;;;18.00;99.90;;;;;;4921105;29;20513;-73
2022/06/22 05:58:59;;;;;;;11.52;6.53;;;17.80;99.90;;;;;;4921941;29;20040;-74
2022/06/22 06:01:55;;;;;;;11.73;6.20;;;19.50;99.90;;;;;;4866361;29;20053;-73
2022/06/22 06:04:36;;;;;;;10.38;5.80;;;21.50;99.90;;;;;;4920482;29;20599;-74
2022/06/22 06:07:19;;;;;;;10.77;5.93;;;23.40;99.90;;;;;;4922454;29;20463;-74
2022/06/22 06:09:46;;;;;;;11.40;5.55;;;24.70;99.90;;;;;;4918033;29;20055;-74
2022/06/22 06:12:24;;;;;;;10.18;5.32;;;25.90;99.90;;;;;;4905202;29;20055;-74
2022/06/22 06:14:52;;;;;;;11.18;5.75;;;26.80;99.90;;;;;;4922241;29;20070;-74
2022/06/22 06:17:41;;;;;;;10.57;6.82;;;27.60;99.50;;;;;;4918566;29;20038;-73
2022/06/22 06:20:20;;;;;;;13.60;7.35;;;28.10;96.40;;;;;;4921557;29;20046;-73
2022/06/22 06:22:48;;;;;;;13.70;7.28;;;28.40;94.60;;;;;;4922421;29;20075;-73
2022/06/22 06:28:15;;;;;;;9.65;5.43;;;25.10;93.40;;;;;;4920471;29;20426;-73
2022/06/22 06:30:50;;;;;;;14.38;6.05;;;23.20;97.60;;;;;;4919675;29;20542;-73
2022/06/22 06:33:21;;;;;;;12.45;5.57;;;21.80;99.90;;;;;;4922264;29;20059;-72
2022/06/22 06:35:59;;;;;;;10.10;5.85;;;20.90;99.90;;;;;;4938603;29;20074;-73
2022/06/22 06:38:32;;;;;;;11.40;6.13;;;20.00;99.90;;;;;;4906827;29;20052;-73
2022/06/22 06:41:07;;;;;;;12.27;6.45;;;19.40;99.90;;;;;;4928343;29;20067;-73
2022/06/22 06:43:39;;;;;;;11.00;5.60;;;19.00;99.90;;;;;;4922355;29;20043;-73
2022/06/22 06:46:32;;;;;;;11.15;6.43;;;18.50;99.90;;;;;;4939661;28;20111;-73
2022/06/22 06:49:07;;;;;;;9.85;6.35;;;18.10;99.90;;;;;;4922536;29;20045;-73
2022/06/22 06:51:35;;;;;;;12.63;6.78;;;17.80;99.90;;;;;;4927857;29;20082;-73
2022/06/22 06:54:07;;;;;;;14.32;6.18;;;17.50;99.90;;;;;;4919309;29;20054;-73
2022/06/22 06:57:09;;;;;;;11.60;5.97;;;17.40;99.90;;;;;;4923475;29;20083;-73
2022/06/22 06:59:39;;;;;;;14.40;5.95;;;17.40;99.90;;;;;;4927316;29;20134;-73
2022/06/22 07:02:17;;;;;;;14.43;6.10;;;17.20;99.90;;;;;;4908460;29;20584;-73
2022/06/22 07:04:44;;;;;;;14.23;6.22;;;17.20;99.90;;;;;;4925929;29;20295;-73
2022/06/22 07:07:18;;;;;;;12.10;6.20;;;17.30;99.90;;;;;;4944599;29;20022;-73
2022/06/22 07:09:47;;;;;;;13.23;5.82;;;17.40;99.90;;;;;;4949300;29;20085;-73
2022/06/22 07:12:27;;;;;;;10.13;5.25;;;17.60;99.90;;;;;;4962559;28;20047;-73
2022/06/22 07:14:53;;;;;;;13.25;5.78;;;17.70;99.90;;;;;;4934789;29;20051;-73
2022/06/22 07:17:22;;;;;;;11.75;5.57;;;17.90;99.90;;;;;;4960976;29;20118;-73
2022/06/22 07:19:56;;;;;;;11.23;5.57;;;18.20;99.90;;;;;;4933332;29;20465;-73
2022/06/22 07:22:35;;;;;;;9.65;5.50;;;18.90;99.90;;;;;;4923416;29;20048;-73
2022/06/22 07:25:38;;;;;;;15.93;6.70;;;19.40;99.90;;;;;;4921351;29;20581;-73
2022/06/22 07:28:06;;;;;;;12.48;6.93;;;19.80;99.90;;;;;;4923660;29;20130;-72
2022/06/22 07:30:36;;;;;;;12.25;5.65;;;20.00;99.90;;;;;;4922867;29;20064;-73
2022/06/22 07:33:06;;;;;;;13.03;5.40;;;20.30;99.90;;;;;;4922962;29;20047;-71
2022/06/22 07:35:40;;;;;;;10.88;5.00;;;20.30;99.90;;;;;;4925038;29;20709;-72
2022/06/22 07:38:41;;;;;;;10.45;4.43;;;20.50;99.90;;;;;;4918632;29;20047;-73
2022/06/22 07:41:18;;;;;;;10.63;4.85;;;20.70;99.90;;;;;;4909479;29;20474;-72
2022/06/22 07:43:50;;;;;;;11.80;4.95;;;21.10;99.90;;;;;;4924280;29;20048;-72
2022/06/22 07:46:57;;;;;;;12.27;5.90;;;21.30;99.90;;;;;;4938618;29;20063;-72
2022/06/22 07:49:26;;;;;;;11.90;4.70;;;21.50;99.90;;;;;;4922261;29;20842;-72
2022/06/22 07:51:56;;;;;;;10.43;4.93;;;21.90;99.90;;;;;;4921004;29;20046;-72
2022/06/22 07:54:36;;;;;;;11.43;4.72;;;22.10;99.90;;;;;;4922812;29;20064;-72
2022/06/22 07:57:05;;;;;;;11.27;4.90;;;22.40;99.90;;;;;;4922956;29;20055;-73
2022/06/22 07:59:38;;;;;;;12.70;4.32;;;22.50;99.90;;;;;;4937176;29;20944;-73
2022/06/22 08:02:10;;;;;;;11.15;4.40;;;22.30;99.90;;;;;;4919096;29;20067;-72
2022/06/22 08:04:41;;;;;;;7.43;3.22;;;22.30;99.90;;;;;;4916994;29;20501;-72
2022/06/22 08:07:12;;;;;;;10.25;4.95;;;22.20;99.90;;;;;;4937216;28;20043;-72
2022/06/22 08:09:49;;;;;;;11.45;5.53;;;22.20;99.90;;;;;;4921944;29;20039;-73
2022/06/22 08:12:33;;;;;;;13.02;4.10;;;22.30;99.90;;;;;;4922184;29;20079;-73
2022/06/22 08:15:02;;;;;;;14.38;4.53;;;22.60;99.90;;;;;;4941996;28;20130;-73
2022/06/22 08:17:47;;;;;;;9.35;3.80;;;22.70;99.90;;;;;;4921539;29;20040;-73
2022/06/22 08:20:20;;;;;;;10.00;4.40;;;23.00;99.90;;;;;;4924083;29;20055;-73
2022/06/22 08:22:48;;;;;;;9.32;4.70;;;23.30;99.90;;;;;;4926597;29;20508;-73
2022/06/22 08:25:17;;;;;;;11.15;4.82;;;23.40;99.90;;;;;;4938799;29;20066;-73
2022/06/22 08:27:43;;;;;;;9.13;3.75;;;23.50;99.90;;;;;;4920261;29;20051;-73
2022/06/22 08:30:11;;;;;;;8.25;3.28;;;23.70;99.90;;;;;;4923199;29;20059;-73
2022/06/22 08:32:47;;;;;;;9.00;2.95;;;23.80;99.90;;;;;;4924276;29;20039;-72
2022/06/22 08:35:23;;;;;;;9.60;4.03;;;23.80;96.80;;;;;;4924961;29;20457;-72
2022/06/22 08:37:51;;;;;;;8.60;3.35;;;23.80;99.80;;;;;;4922114;29;20150;-74
2022/06/22 08:40:39;;;;;;;9.90;4.00;;;24.10;99.90;;;;;;4924303;29;20048;-73
2022/06/22 08:43:20;;;;;;;7.22;3.22;;;24.20;99.10;;;;;;4925856;29;20103;-73
2022/06/22 08:45:46;;;;;;;;;;;24.40;99.90;;;;;;4921687;29;20282;-74
2022/06/22 08:48:43;;;;;;;10.45;3.42;;;24.50;99.50;;;;;;4940711;28;19922;-73
2022/06/22 08:51:43;;;;;;;9.07;4.13;;;24.60;99.60;;;;;;4920083;29;20043;-74
2022/06/22 08:54:28;;;;;;;8.48;3.80;;;24.70;97.00;;;;;;4890956;29;20051;-75
2022/06/22 08:56:56;;;;;;;9.65;3.55;;;24.50;95.30;;;;;;4939816;29;20055;-74
2022/06/22 08:59:53;;;;;;;8.85;3.45;;;24.40;97.50;;;;;;4917376;29;20642;-74
2022/06/22 09:02:26;;;;;;;13.80;4.43;;;24.40;96.70;;;;;;4922576;29;20623;-74
2022/06/22 09:05:33;;;;;;;8.30;3.92;;;24.40;96.50;;;;;;4936922;29;20055;-74
2022/06/22 09:08:20;;;;;;;9.18;3.50;;;24.20;96.10;;;;;;4924060;29;20561;-74
2022/06/22 09:11:02;;;;;;;10.30;3.92;;;23.90;94.50;;;;;;4934106;29;20130;-74
2022/06/22 09:14:07;;;;;;;9.50;3.95;;;23.70;95.20;;;;;;4923529;29;20437;-73
2022/06/22 09:16:52;;;;;;;11.27;4.47;;;23.90;97.20;;;;;;4928122;29;20181;-73
2022/06/22 09:19:32;;;;;;;9.38;3.97;;;24.00;95.00;;;;;;4926449;29;20052;-74
2022/06/22 09:22:08;;;;;;;9.65;4.28;;;24.00;95.60;;;;;;4942018;28;20039;-75
2022/06/22 09:25:02;;;;;;;13.07;4.25;;;24.10;97.00;;;;;;4940016;28;20048;-74
2022/06/22 09:28:09;;;;;;;8.88;3.67;;;24.40;97.20;;;;;;4934003;29;20047;-74
2022/06/22 09:30:53;;;;;;;12.13;4.25;;;24.70;97.70;;;;;;4878866;29;20055;-74
2022/06/22 09:33:21;;;;;;;9.50;3.80;;;25.00;96.60;;;;;;4880533;29;21343;-74
2022/06/22 09:36:20;;;;;;;11.38;3.75;;;25.30;96.60;;;;;;4920114;29;20142;-74
2022/06/22 09:39:12;;;;;;;9.75;4.30;;;25.50;95.50;;;;;;4877972;29;20055;-74
2022/06/22 09:42:12;;;;;;;9.50;3.22;;;25.60;91.90;;;;;;4912498;29;20066;-73
2022/06/22 09:44:46;;;;;;;10.60;2.90;;;25.40;91.60;;;;;;4941834;29;20126;-74
2022/06/22 09:47:31;;;;;;;8.32;3.08;;;25.40;92.50;;;;;;4941755;29;20057;-74
2022/06/22 09:50:36;;;;;;;13.25;4.18;;;25.60;93.70;;;;;;4925922;29;20047;-74
2022/06/22 09:53:20;;;;;;;9.77;3.42;;;25.90;92.90;;;;;;4929702;29;20054;-74
2022/06/22 09:58:45;;;;;;;9.55;3.72;;;25.50;85.20;;;;;;4944100;28;20137;-74
2022/06/22 10:01:29;;;;;;;8.27;3.15;;;24.60;85.40;;;;;;4926724;29;20078;-73
2022/06/22 10:04:13;;;;;;;8.52;3.03;;;24.50;90.10;;;;;;4927453;29;20039;-73
2022/06/22 10:07:05;;;;;;;9.50;3.40;;;24.70;91.60;;;;;;4928310;29;20142;-73
2022/06/22 10:09:48;;;;;;;8.82;3.38;;;25.00;91.30;;;;;;4927963;29;20497;-73
2022/06/22 10:12:29;;;;;;;11.50;3.92;;;25.30;91.50;;;;;;4944957;29;20151;-74
2022/06/22 10:15:19;;;;;;;10.18;3.30;;;25.40;90.40;;;;;;4931156;28;20641;-72
2022/06/22 10:18:12;;;;;;;10.05;3.63;;;25.50;89.30;;;;;;4915791;29;20456;-74
2022/06/22 10:21:13;;;;;;;10.45;4.40;;;25.50;90.40;;;;;;4924215;29;20054;-74
2022/06/22 10:23:42;;;;;;;8.93;3.35;;;25.60;87.50;;;;;;4924005;28;20086;-72
2022/06/22 10:26:27;;;;;;;12.02;4.00;;;25.60;89.80;;;;;;4917658;29;20404;-72
2022/06/22 10:29:34;;;;;;;11.13;4.15;;;25.60;85.80;;;;;;4940390;28;20468;-71
2022/06/22 10:32:33;;;;;;;10.20;3.75;;;25.40;84.50;;;;;;4920154;29;20149;-74
2022/06/22 10:35:05;;;;;;;11.45;3.70;;;25.40;88.60;;;;;;4880719;29;20047;-73
2022/06/22 10:37:49;;;;;;;14.15;4.40;;;25.40;87.40;;;;;;4928816;29;20769;-73
2022/06/22 10:46:59;;;;;;;12.50;3.20;;;25.60;88.10;;;;;;4926403;29;20050;-73
2022/06/22 10:49:59;;;;;;;10.38;3.63;;;25.80;86.30;;;;;;4917521;28;20535;-73
2022/06/22 10:52:49;;;;;;;8.45;3.08;;;25.90;84.30;;;;;;4940658;28;20412;-73
2022/06/22 10:55:36;;;;;;;9.23;3.47;;;25.60;83.40;;;;;;4937529;29;20075;-74
2022/06/22 10:58:37;;;;;;;11.10;3.53;;;25.40;83.10;;;;;;4940770;28;20523;-74
2022/06/22 11:01:18;;;;;;;10.77;4.20;;;25.20;85.30;;;;;;4936157;29;20086;-74
2022/06/22 11:04:10;;;;;;;9.10;3.53;;;25.10;84.40;;;;;;4927033;29;20166;-74
2022/06/22 11:07:20;;;;;;;7.57;3.30;;;25.10;82.80;;;;;;4942202;29;20406;-74
2022/06/22 11:10:17;;;;;;;8.93;3.92;;;25.10;83.30;;;;;;4924202;29;20087;-73
2022/06/22 11:13:09;;;;;;;11.90;3.80;;;25.20;83.80;;;;;;4928655;29;20169;-73
2022/06/22 11:15:41;;;;;;;9.90;3.95;;;25.00;82.40;;;;;;4912981;29;20052;-74
2022/06/22 11:18:25;;;;;;;8.73;3.70;;;25.00;83.40;;;;;;4910690;29;20074;-73
2022/06/22 11:21:14;;;;;;;9.32;3.58;;;25.10;85.90;;;;;;4925339;29;20050;-74
2022/06/22 11:24:19;;;;;;;7.55;2.70;;;25.20;83.60;;;;;;4906738;29;20390;-74
2022/06/22 11:33:27;;;;;;;9.55;3.55;;;25.40;85.10;;;;;;4926755;29;20756;-73
2022/06/22 11:36:09;;;;;;;10.30;3.47;;;25.50;84.70;;;;;;4912203;29;20043;-73
2022/06/22 11:39:05;;;;;;;10.57;3.63;;;25.50;85.00;;;;;;4932086;29;20082;-71
2022/06/22 11:41:40;;;;;;;11.65;3.88;;;25.60;82.70;;;;;;4923670;29;20043;-73
2022/06/22 11:44:11;;;;;;;10.07;3.72;;;25.70;84.40;;;;;;4923263;29;20188;-74
2022/06/22 11:46:48;;;;;;;9.80;4.10;;;25.50;84.50;;;;;;4926305;29;20102;-74
2022/06/22 11:49:48;;;;;;;8.82;3.25;;;25.40;85.00;;;;;;4931607;29;20056;-76
2022/06/22 11:52:36;;;;;;;8.77;3.00;;;25.10;83.90;;;;;;4933050;29;20051;-72
2022/06/22 11:55:29;;;;;;;7.53;3.08;;;25.10;85.00;;;;;;4929381;29;20424;-74
2022/06/22 11:58:17;;;;;;;9.85;3.65;;;25.20;85.00;;;;;;4948900;28;20050;-73
2022/06/22 12:01:08;;;;;;;10.32;3.63;;;25.30;86.40;;;;;;4929976;29;20058;-73
2022/06/22 12:04:05;;;;;;;7.72;3.15;;;25.30;86.40;;;;;;4938935;28;20063;-74
2022/06/22 12:06:49;;;;;;;11.50;3.83;;;25.50;85.90;;;;;;4948036;28;20121;-75
2022/06/22 12:09:36;;;;;;;11.63;4.10;;;25.50;84.10;;;;;;4929865;29;20044;-75
2022/06/22 12:12:07;;;;;;;10.80;4.25;;;25.30;83.90;;;;;;4944100;28;20094;-72
2022/06/22 12:17:38;;;;;;;12.68;4.18;;;25.10;85.60;;;;;;4945517;29;20435;-72
2022/06/22 12:20:25;;;;;;;9.35;4.05;;;25.10;84.20;;;;;;4927741;29;20169;-73
2022/06/22 12:23:43;;;;;;;9.38;3.72;;;25.20;87.00;;;;;;4946333;28;20071;-73
2022/06/22 12:26:18;;;;;;;10.73;4.28;;;25.30;88.30;;;;;;4891873;29;20069;-73
2022/06/22 12:28:58;;;;;;;11.20;4.10;;;25.50;86.50;;;;;;4943777;29;20072;-73
2022/06/22 12:31:30;;;;;;;13.23;4.85;;;25.40;85.80;;;;;;4930443;28;20059;-74
2022/06/22 12:34:12;;;;;;;11.63;4.03;;;25.30;85.40;;;;;;4929061;28;20066;-73
2022/06/22 12:36:41;;;;;;;11.10;3.40;;;25.30;86.90;;;;;;4916418;29;20488;-73
2022/06/22 12:39:29;;;;;;;9.77;4.03;;;25.30;87.00;;;;;;4943215;28;20035;-73
2022/06/22 12:42:14;;;;;;;13.80;4.55;;;25.30;87.30;;;;;;4946279;28;20038;-74
2022/06/22 12:45:09;;;;;;;11.73;4.55;;;25.30;86.50;;;;;;4931254;29;20102;-74
2022/06/22 12:48:08;;;;;;;11.73;4.20;;;25.10;86.70;;;;;;4932320;29;20039;-74
2022/06/22 12:51:11;;;;;;;8.38;3.85;;;25.10;87.00;;;;;;4929120;29;20040;-73
2022/06/22 12:53:40;;;;;;;10.93;4.03;;;25.00;87.20;;;;;;4933165;29;20039;-73
2022/06/22 12:56:23;;;;;;;15.27;4.07;;;25.00;87.50;;;;;;4929062;29;20436;-74
2022/06/22 12:58:52;;;;;;;10.65;4.00;;;25.00;88.10;;;;;;4946025;28;20525;-74
2022/06/22 13:01:18;;;;;;;10.70;4.13;;;25.20;88.60;;;;;;4947568;28;20074;-72
2022/06/22 13:03:57;;;;;;;10.00;3.70;;;25.30;88.20;;;;;;4933044;29;20126;-74
2022/06/22 13:06:25;;;;;;;12.10;4.28;;;25.10;85.00;;;;;;4945705;28;20043;-74
2022/06/22 13:08:52;;;;;;;12.07;4.15;;;25.00;86.20;;;;;;4942356;29;20089;-74
2022/06/22 13:11:22;;;;;;;10.98;3.63;;;24.90;86.30;;;;;;4947285;28;20075;-74
2022/06/22 13:14:26;;;;;;;12.97;4.10;;;24.90;87.90;;;;;;4944392;29;20051;-74
2022/06/22 13:17:04;;;;;;;9.52;4.25;;;25.00;87.80;;;;;;4943501;28;20035;-73
2022/06/22 13:20:05;;;;;;;8.93;3.33;;;24.90;86.70;;;;;;4912665;29;20055;-73
2022/06/22 13:22:49;;;;;;;9.27;3.88;;;24.90;87.60;;;;;;4946219;28;20043;-74
2022/06/22 13:25:15;;;;;;;10.10;3.50;;;24.80;88.20;;;;;;4927081;29;20047;-73
2022/06/22 13:27:48;;;;;;;11.52;3.90;;;24.80;90.60;;;;;;4930104;29;20055;-73
2022/06/22 13:30:17;;;;;;;11.02;4.70;;;24.90;91.80;;;;;;4934526;29;20417;-72
2022/06/22 13:32:53;;;;;;;10.48;4.28;;;24.60;90.70;;;;;;4947923;28;20468;-72
2022/06/22 13:35:28;;;;;;;12.80;4.60;;;24.40;92.00;;;;;;4929721;29;20069;-73
2022/06/22 13:38:01;;;;;;;10.98;5.10;;;24.10;91.70;;;;;;4914188;29;20043;-72
2022/06/22 13:40:43;;;;;;;9.23;4.15;;;23.90;91.60;;;;;;4943327;28;20493;-72
2022/06/22 13:43:27;;;;;;;12.10;4.90;;;23.70;93.20;;;;;;4931613;29;20412;-71
2022/06/22 13:46:04;;;;;;;11.95;6.60;;;23.70;94.60;;;;;;4929828;29;20137;-72
2022/06/22 13:48:44;;;;;;;16.55;6.35;;;23.60;96.00;;;;;;4945412;28;20141;-73
2022/06/22 13:51:40;;;;;;;13.45;6.00;;;23.50;96.80;;;;;;4943923;29;20494;-72
2022/06/22 13:54:17;;;;;;;11.43;5.97;;;23.50;97.80;;;;;;4928927;29;20126;-73
2022/06/22 13:57:01;;;;;;;13.68;5.90;;;23.40;97.70;;;;;;4916880;29;20043;-73
2022/06/22 13:59:56;;;;;;;12.05;5.97;;;23.40;99.50;;;;;;4928694;29;20051;-73
2022/06/22 14:02:27;;;;;;;15.05;6.60;;;23.40;99.90;;;;;;4944395;28;20129;-74
2022/06/22 14:04:58;;;;;;;;;;;23.40;99.90;;;;;;4948549;29;20050;-72
2022/06/22 14:07:37;;;;;;;14.82;6.20;;;23.50;99.90;;;;;;4943068;28;19931;-73
2022/06/22 14:10:38;;;;;;;14.88;5.57;;;23.50;99.90;;;;;;4923516;28;20048;-72
2022/06/22 14:13:12;;;;;;;10.50;4.70;;;23.50;99.90;;;;;;4918170;29;20098;-72
2022/06/22 14:15:53;;;;;;;15.70;5.70;;;23.60;99.90;;;;;;4942892;28;21596;-73